»·PEaware :: DAL80 KBUF-KLGA

DAL80 :: KBUF-KLGA

FLIGHT INFORMATION

Flight Status: Arrived
Operator:
Delta Air Lines
More flights by this operator :: More flights under this callsign
Pilot: Ty S. (2873)
Aircraft: MCDONNELL-DOUGLAS MD-88
(MD88)
More flights by this aircraft type
Origin: KBUF Buffalo Niagara Intl
United States
Destination: KLGA La Guardia
United States
More flights between these airports :: More routes between these airports
Route: GEE AUDIL RKA HAARP3
File this flight plan on PilotEdge
Remarks: Recording my way to victory
Altitude:
(Current/Filed)
25,000ft
Speed:
(Current/Filed)
430kts
Departed: 06-Dec-15 09:24 AM
Arrived: 06-Dec-15 10:18 AM
Distance/Time
Traveled:
253nm/0:54
Distance/Time
To Go:
Arrived

Flight Plot

Page will automatically refresh every two minutes.


Map Options




Map Legend


Flown Route
Filed Route
Departure Airport
Arrival Airport
Navaid (VOR, NDB)
Fix

Horizontal Profiles

Position Reports

Time Latitude Longitude Heading Altitude Ground
Speed
06-Dec-15 08:14 42.936598 -78.728526 273 730ft 0kts
06-Dec-15 08:15 42.936598 -78.728526 273 730ft 0kts
06-Dec-15 08:16 42.936598 -78.728526 273 730ft 0kts
06-Dec-15 08:17 42.936598 -78.728526 273 730ft 0kts
06-Dec-15 08:18 42.936598 -78.728526 273 730ft 0kts
06-Dec-15 08:19 42.936598 -78.728526 273 730ft 0kts
06-Dec-15 08:20 42.936598 -78.728526 273 730ft 0kts
06-Dec-15 08:21 42.936598 -78.728526 273 730ft 0kts
06-Dec-15 08:22 42.936598 -78.728526 273 730ft 0kts
06-Dec-15 08:23 42.936598 -78.728526 273 730ft 0kts
06-Dec-15 08:24 42.936598 -78.728526 273 730ft 0kts
06-Dec-15 08:25 42.936598 -78.728526 273 730ft 0kts
06-Dec-15 08:26 42.936598 -78.728526 273 730ft 0kts
06-Dec-15 08:27 42.936598 -78.728526 273 730ft 0kts
06-Dec-15 08:28 42.936598 -78.728526 273 730ft 0kts
06-Dec-15 08:29 42.936598 -78.728526 273 730ft 0kts
06-Dec-15 08:30 42.936598 -78.728526 273 730ft 0kts
06-Dec-15 08:31 42.936598 -78.728526 273 730ft 0kts
06-Dec-15 08:32 42.936598 -78.728526 273 730ft 0kts
06-Dec-15 08:33 42.936598 -78.728526 273 730ft 0kts
06-Dec-15 08:34 42.936598 -78.728526 273 730ft 0kts
06-Dec-15 08:35 42.936598 -78.728526 273 730ft 0kts
06-Dec-15 08:36 42.936598 -78.728526 273 730ft 0kts
06-Dec-15 08:37 42.936598 -78.728526 273 730ft 0kts
06-Dec-15 08:38 42.936598 -78.728526 273 730ft 0kts
06-Dec-15 08:39 42.936598 -78.728526 273 730ft 0kts
06-Dec-15 08:40 42.936598 -78.728526 273 730ft 0kts
06-Dec-15 08:41 42.936598 -78.728526 273 730ft 0kts
06-Dec-15 08:42 42.936598 -78.728526 273 730ft 0kts
06-Dec-15 08:43 42.936598 -78.728526 273 730ft 0kts
06-Dec-15 08:44 42.936598 -78.728526 273 730ft 0kts
06-Dec-15 08:45 42.936598 -78.728526 273 730ft 0kts
06-Dec-15 08:46 42.936598 -78.728526 273 730ft 0kts
06-Dec-15 08:47 42.936598 -78.728526 273 730ft 0kts
06-Dec-15 08:48 42.936598 -78.728526 273 730ft 0kts
06-Dec-15 08:49 42.936598 -78.728526 273 730ft 0kts
06-Dec-15 08:50 42.936598 -78.728526 273 730ft 0kts
06-Dec-15 08:51 42.936598 -78.728526 273 730ft 0kts
06-Dec-15 08:52 42.936598 -78.728526 273 730ft 0kts
06-Dec-15 08:53 42.936598 -78.728526 273 730ft 0kts
06-Dec-15 08:54 42.936598 -78.728526 273 730ft 0kts
06-Dec-15 08:55 42.936598 -78.728526 273 730ft 0kts
06-Dec-15 08:56 42.936598 -78.728526 273 730ft 0kts
06-Dec-15 08:57 42.936598 -78.728526 273 730ft 0kts
06-Dec-15 08:58 42.936598 -78.728526 273 730ft 0kts
06-Dec-15 08:59 42.936598 -78.728526 273 730ft 0kts
06-Dec-15 09:00 42.936598 -78.728526 273 730ft 0kts
06-Dec-15 09:01 42.936598 -78.728526 273 730ft 0kts
06-Dec-15 09:02 42.936598 -78.728526 273 730ft 0kts
06-Dec-15 09:03 42.936598 -78.728526 273 730ft 0kts
06-Dec-15 09:04 42.936598 -78.728526 273 730ft 0kts
06-Dec-15 09:05 42.936598 -78.728525 273 730ft 0kts
06-Dec-15 09:06 42.936595 -78.728333 278 730ft 0kts
06-Dec-15 09:07 42.936459 -78.727900 306 730ft 0kts
06-Dec-15 09:08 42.936405 -78.727815 313 730ft 0kts
06-Dec-15 09:09 42.936405 -78.727815 313 730ft 0kts
06-Dec-15 09:10 42.936405 -78.727815 313 730ft 0kts
06-Dec-15 09:11 42.936405 -78.727815 313 730ft 0kts
06-Dec-15 09:12 42.936405 -78.727815 313 730ft 0kts
06-Dec-15 09:13 42.936594 -78.727898 5 730ft 5kts
06-Dec-15 09:14 42.938764 -78.729097 331 730ft 10kts
06-Dec-15 09:15 42.941234 -78.726416 44 730ft 12kts
06-Dec-15 09:16 42.943992 -78.722807 43 730ft 9kts
06-Dec-15 09:17 42.945971 -78.720202 43 730ft 13kts
06-Dec-15 09:18 42.947703 -78.718204 2 730ft 0kts
06-Dec-15 09:19 42.947949 -78.718310 329 730ft 6kts
06-Dec-15 09:20 42.948008 -78.719572 223 730ft 0kts
06-Dec-15 09:21 42.931119 -78.741587 223 1359ft 153kts
06-Dec-15 09:22 42.893684 -78.791847 224 2425ft 245kts
06-Dec-15 09:23 42.843870 -78.858399 216 5311ft 256kts
06-Dec-15 09:24 42.797685 -78.812971 77 7760ft 280kts
06-Dec-15 09:25 42.826255 -78.711149 70 10097ft 297kts
06-Dec-15 09:26 42.860015 -78.592307 70 11247ft 357kts
06-Dec-15 09:27 42.896502 -78.462823 71 13413ft 374kts
06-Dec-15 09:28 42.902449 -78.324177 102 15434ft 376kts
06-Dec-15 09:29 42.886726 -78.180849 104 17337ft 388kts
06-Dec-15 09:30 42.869664 -78.033187 104 19129ft 400kts
06-Dec-15 09:31 42.851885 -77.881198 104 20785ft 413kts
06-Dec-15 09:32 42.834372 -77.724000 92 22287ft 431kts
06-Dec-15 09:33 42.840166 -77.558842 91 23832ft 440kts
06-Dec-15 09:34 42.845464 -77.392633 89 25489ft 440kts
06-Dec-15 09:35 42.850857 -77.227637 89 26971ft 439kts
06-Dec-15 09:36 42.855737 -77.061895 89 27484ft 438kts
06-Dec-15 09:37 42.860402 -76.896503 90 27266ft 437kts
06-Dec-15 09:38 42.864545 -76.738947 90 29085ft 411kts
06-Dec-15 09:39 42.868594 -76.575107 89 27660ft 438kts
06-Dec-15 09:40 42.864090 -76.412775 121 27546ft 423kts
06-Dec-15 09:41 42.814587 -76.269491 119 27499ft 423kts
06-Dec-15 09:42 42.765971 -76.123358 119 27501ft 423kts
06-Dec-15 09:43 42.717467 -75.978403 119 27504ft 423kts
06-Dec-15 09:44 42.668533 -75.832940 119 27495ft 423kts
06-Dec-15 09:45 42.619298 -75.687361 119 27474ft 425kts
06-Dec-15 09:46 42.569587 -75.541150 119 27471ft 426kts
06-Dec-15 09:47 42.519992 -75.396055 119 27484ft 425kts
06-Dec-15 09:48 42.470867 -75.251761 121 27470ft 424kts
06-Dec-15 09:49 42.392568 -75.139863 140 27457ft 412kts
06-Dec-15 09:50 42.310980 -75.030482 140 27456ft 415kts
06-Dec-15 09:51 42.228529 -74.920372 140 27457ft 419kts
06-Dec-15 09:52 42.145859 -74.810374 140 27457ft 417kts
06-Dec-15 09:53 42.063194 -74.700853 140 27459ft 418kts
06-Dec-15 09:54 41.983069 -74.595063 140 26732ft 395kts
06-Dec-15 09:55 41.905107 -74.492524 140 26058ft 390kts
06-Dec-15 09:56 41.841926 -74.409686 140 25517ft 385kts
06-Dec-15 09:57 41.766887 -74.311230 140 24855ft 379kts
06-Dec-15 09:58 41.692112 -74.213693 140 23388ft 363kts
06-Dec-15 09:59 41.620279 -74.120490 139 21491ft 356kts
06-Dec-15 10:00 41.550431 -74.030096 138 19498ft 346kts
06-Dec-15 10:01 41.482082 -73.941947 138 17499ft 337kts
06-Dec-15 10:02 41.412939 -73.861613 147 15602ft 324kts
06-Dec-15 10:03 41.339151 -73.794586 147 13587ft 319kts
06-Dec-15 10:04 41.267237 -73.729555 146 11714ft 311kts
06-Dec-15 10:05 41.197218 -73.666390 146 9921ft 288kts
06-Dec-15 10:06 41.133150 -73.609171 154 8412ft 278kts
06-Dec-15 10:07 41.064443 -73.638304 212 7046ft 265kts
06-Dec-15 10:08 41.003705 -73.689536 213 5786ft 257kts
06-Dec-15 10:09 40.955530 -73.752431 243 4628ft 240kts
06-Dec-15 10:10 40.927519 -73.829292 243 3660ft 227kts
06-Dec-15 10:11 40.900983 -73.903663 242 2566ft 219kts
06-Dec-15 10:12 40.859471 -73.942765 173 2034ft 175kts
06-Dec-15 10:13 40.814551 -73.924744 152 1140ft 169kts
06-Dec-15 10:14 40.784643 -73.883442 124 137ft 154kts
06-Dec-15 10:15 40.773698 -73.862734 157 13ft 5kts
06-Dec-15 10:16 40.773874 -73.864878 291 13ft 8kts
06-Dec-15 10:17 40.772691 -73.865880 137 13ft 0kts
06-Dec-15 10:18 40.772691 -73.865880 137 13ft 0kts
06-Dec-15 10:19 40.772691 -73.865880 137 13ft 0kts
06-Dec-15 10:20 40.772691 -73.865880 137 13ft 0kts
06-Dec-15 10:21 40.772691 -73.865880 137 13ft 0kts
06-Dec-15 10:22 40.772691 -73.865880 137 13ft 0kts
06-Dec-15 10:23 40.772691 -73.865880 137 13ft 0kts

Navigation Log

Ident Type
Flight plan parsing failed, navigation log unavailable